createdAt,value
2022-09-05T00:02:49.151Z,37.10
2022-09-05T00:05:44.227Z,37.00
2022-09-05T00:08:25.378Z,36.80
2022-09-05T00:11:40.588Z,36.90
2022-09-05T00:13:51.301Z,37.10
2022-09-05T00:16:46.996Z,36.70
2022-09-05T00:23:58.745Z,37.00
2022-09-05T00:24:26.438Z,37.10
2022-09-05T00:25:38.570Z,37.10
2022-09-05T00:28:26.538Z,37.40
2022-09-05T00:31:53.485Z,37.30
2022-09-05T00:34:16.784Z,37.00
2022-09-05T00:36:46.371Z,36.90
2022-09-05T00:39:17.849Z,37.10
2022-09-05T00:41:46.152Z,36.90
2022-09-05T00:44:13.979Z,37.10
2022-09-05T00:46:44.019Z,37.10
2022-09-05T00:49:20.808Z,37.10
2022-09-05T00:51:52.290Z,37.10
2022-09-05T00:54:49.268Z,37.30
2022-09-05T00:57:45.320Z,37.30
2022-09-05T01:00:18.286Z,37.20
2022-09-05T01:03:13.128Z,37.20
2022-09-05T01:05:50.425Z,37.60
2022-09-05T01:08:24.646Z,37.40
2022-09-05T01:10:55.036Z,37.50
2022-09-05T01:13:29.042Z,37.20
2022-09-05T01:16:00.874Z,37.50
2022-09-05T01:18:36.002Z,37.20
2022-09-05T01:21:31.344Z,37.20
2022-09-05T01:24:34.051Z,37.50
2022-09-05T01:27:53.081Z,37.40
2022-09-05T01:30:23.980Z,37.30
2022-09-05T01:33:06.106Z,37.40
2022-09-05T01:35:53.501Z,37.30
2022-09-05T01:38:35.614Z,38.10
2022-09-05T01:41:19.160Z,37.40
2022-09-05T01:44:09.035Z,37.50
2022-09-05T01:46:40.457Z,37.50
2022-09-05T01:49:14.515Z,37.60
2022-09-05T01:52:02.032Z,37.40
2022-09-05T01:54:34.697Z,37.40
2022-09-05T01:57:04.756Z,37.50
2022-09-05T01:59:45.302Z,37.60
2022-09-05T02:02:19.905Z,37.70
2022-09-05T02:04:59.864Z,37.60
2022-09-05T02:07:34.354Z,37.70
2022-09-05T02:10:31.428Z,37.60
2022-09-05T02:13:03.511Z,37.50
2022-09-05T02:15:40.825Z,37.60
2022-09-05T02:18:12.605Z,37.50
2022-09-05T02:20:46.145Z,37.50
2022-09-05T02:23:41.144Z,37.30
2022-09-05T02:26:13.399Z,37.50
2022-09-05T02:28:45.120Z,37.60
2022-09-05T02:31:20.120Z,37.80
2022-09-05T02:33:49.695Z,37.60
2022-09-05T02:36:23.457Z,37.60
2022-09-05T02:45:01.439Z,37.60
2022-09-05T02:45:11.157Z,37.70
2022-09-05T02:45:16.411Z,37.50
2022-09-05T02:47:28.976Z,37.70
2022-09-05T02:52:34.269Z,38.00
2022-09-05T02:57:25.317Z,37.80
2022-09-05T02:57:34.569Z,37.70
2022-09-05T02:59:08.604Z,37.80
2022-09-05T03:01:50.620Z,38.10
2022-09-05T03:04:27.074Z,37.90
2022-09-05T03:07:02.803Z,37.80
2022-09-05T03:09:37.728Z,38.20
2022-09-05T03:12:28.596Z,38.20
2022-09-05T03:15:25.529Z,38.10
2022-09-05T03:18:21.019Z,38.20
2022-09-05T03:21:13.233Z,38.20
2022-09-05T03:24:06.929Z,38.30
2022-09-05T03:26:58.291Z,38.00
2022-09-05T03:29:50.061Z,38.20
2022-09-05T03:32:45.382Z,38.30
2022-09-05T03:36:08.731Z,38.20
2022-09-05T03:39:16.262Z,38.20
2022-09-05T03:42:17.013Z,38.20
2022-09-05T03:44:54.584Z,38.20
2022-09-05T03:47:38.683Z,38.30
2022-09-05T03:55:59.947Z,38.40
2022-09-05T03:57:14.836Z,38.40
2022-09-05T03:57:18.177Z,38.60
2022-09-05T03:59:50.509Z,38.50
2022-09-05T04:08:08.220Z,38.60
2022-09-05T04:08:14.028Z,38.60
2022-09-05T04:08:15.655Z,38.70
2022-09-05T04:10:54.135Z,38.60
2022-09-05T04:13:25.731Z,38.90
2022-09-05T04:16:02.960Z,39.00
2022-09-05T04:18:35.297Z,38.90
2022-09-05T04:21:04.843Z,38.60
2022-09-05T04:23:35.381Z,38.90
2022-09-05T04:26:11.763Z,38.60
2022-09-05T04:28:55.922Z,38.90
2022-09-05T04:31:29.984Z,38.70
2022-09-05T04:34:03.811Z,38.90
2022-09-05T04:36:33.104Z,38.70
2022-09-05T04:39:08.204Z,38.70
2022-09-05T04:41:40.208Z,38.80
2022-09-05T04:44:10.919Z,38.70
2022-09-05T04:46:48.893Z,38.70
2022-09-05T04:49:18.085Z,38.80
2022-09-05T04:52:11.282Z,38.80
2022-09-05T04:54:43.392Z,38.90
2022-09-05T04:57:18.285Z,38.90
2022-09-05T05:03:22.082Z,38.70
2022-09-05T05:06:15.299Z,39.00
2022-09-05T05:06:17.548Z,39.10
2022-09-05T05:08:38.117Z,39.10
2022-09-05T05:16:06.294Z,39.10
2022-09-05T05:17:55.651Z,39.30
2022-09-05T05:18:13.757Z,39.30
2022-09-05T05:19:40.634Z,39.30
2022-09-05T05:22:14.825Z,39.30
2022-09-05T05:24:44.208Z,39.10
2022-09-05T05:27:13.288Z,39.20
2022-09-05T05:29:45.251Z,39.20
2022-09-05T05:32:33.220Z,39.40
2022-09-05T05:35:09.552Z,39.20
2022-09-05T05:37:38.031Z,39.30
2022-09-05T05:40:08.603Z,39.30
2022-09-05T05:42:36.643Z,39.30
2022-09-05T05:45:04.891Z,39.50
2022-09-05T05:47:36.261Z,39.40
2022-09-05T05:50:11.625Z,39.40
2022-09-05T05:52:50.984Z,39.30
2022-09-05T05:55:52.261Z,39.40
2022-09-05T05:58:46.730Z,39.30
2022-09-05T06:01:38.749Z,39.30
2022-09-05T06:04:45.322Z,39.40
2022-09-05T06:07:19.504Z,39.20
2022-09-05T06:14:48.846Z,39.40
2022-09-05T06:15:01.463Z,39.20
2022-09-05T06:16:49.770Z,39.50
2022-09-05T06:21:58.273Z,39.50
2022-09-05T06:22:54.856Z,39.30
2022-09-05T06:25:55.045Z,39.40
2022-09-05T06:28:26.714Z,39.40
2022-09-05T06:31:30.696Z,39.40
2022-09-05T06:33:57.375Z,39.60
2022-09-05T06:36:33.568Z,39.60
2022-09-05T06:39:11.051Z,39.80
2022-09-05T06:41:44.716Z,39.70
2022-09-05T06:44:37.113Z,40.00
2022-09-05T06:47:24.131Z,39.70
2022-09-05T06:50:27.103Z,40.20
2022-09-05T06:53:32.543Z,39.90
2022-09-05T06:56:11.571Z,39.80
2022-09-05T06:59:09.638Z,40.00
2022-09-05T07:02:00.170Z,40.00
2022-09-05T07:05:23.529Z,40.00
2022-09-05T07:07:27.650Z,40.00
2022-09-05T07:10:00.557Z,39.90
2022-09-05T07:12:31.283Z,39.80
2022-09-05T07:15:08.826Z,40.60
2022-09-05T07:18:09.578Z,39.80
2022-09-05T07:21:15.748Z,39.80
2022-09-05T07:24:02.328Z,39.80
2022-09-05T07:26:54.677Z,39.80
2022-09-05T07:29:19.312Z,39.80
2022-09-05T07:31:51.732Z,39.80
2022-09-05T07:34:22.466Z,39.60
2022-09-05T07:37:14.615Z,39.70
2022-09-05T07:39:46.203Z,39.60
2022-09-05T07:42:16.227Z,39.70
2022-09-05T07:44:47.452Z,39.40
2022-09-05T07:47:18.731Z,39.90
2022-09-05T07:50:05.092Z,39.60
2022-09-05T07:56:56.185Z,39.30
2022-09-05T07:57:01.708Z,39.50
2022-09-05T07:58:14.715Z,39.50
2022-09-05T08:00:44.028Z,39.70
2022-09-05T08:03:12.878Z,39.40
2022-09-05T08:05:43.283Z,39.00
2022-09-05T08:08:12.257Z,38.90
2022-09-05T08:11:23.227Z,38.80
2022-09-05T08:13:47.071Z,38.90
2022-09-05T08:16:17.905Z,38.20
2022-09-05T08:18:49.984Z,39.00
2022-09-05T08:21:27.444Z,38.80
2022-09-05T08:23:58.085Z,38.60
2022-09-05T08:26:31.946Z,38.00
2022-09-05T08:29:02.950Z,37.80
2022-09-05T08:31:36.183Z,37.80
2022-09-05T08:34:12.779Z,37.80
2022-09-05T08:36:41.849Z,37.80
2022-09-05T08:39:10.353Z,37.30
2022-09-05T08:41:56.117Z,37.50
2022-09-05T08:46:42.113Z,37.20
2022-09-05T08:47:27.285Z,38.00
2022-09-05T08:50:26.701Z,37.90
2022-09-05T08:52:59.141Z,37.00
2022-09-05T08:55:35.195Z,37.20
2022-09-05T08:58:07.296Z,37.40
2022-09-05T09:00:38.089Z,36.60
2022-09-05T09:03:13.376Z,37.00
2022-09-05T09:06:17.205Z,37.10
2022-09-05T09:09:05.261Z,37.20
2022-09-05T09:11:36.925Z,37.40
2022-09-05T09:14:36.584Z,36.80
2022-09-05T09:17:08.634Z,35.90
2022-09-05T09:19:47.126Z,36.20
2022-09-05T09:22:19.881Z,35.80
2022-09-05T09:25:15.678Z,35.70
2022-09-05T09:28:17.688Z,35.80
2022-09-05T09:30:33.120Z,36.50
2022-09-05T09:33:04.345Z,35.50
2022-09-05T09:35:39.417Z,35.70
2022-09-05T09:38:14.358Z,35.30
2022-09-05T09:41:04.825Z,35.50
2022-09-05T09:43:38.884Z,35.20
2022-09-05T09:46:17.900Z,35.40
2022-09-05T09:49:02.726Z,35.70
2022-09-05T09:51:49.769Z,35.50
2022-09-05T09:54:38.104Z,35.20
2022-09-05T09:57:36.195Z,35.10
2022-09-05T10:00:08.109Z,35.30
2022-09-05T10:08:38.029Z,35.20
2022-09-05T10:10:38.088Z,35.00
2022-09-05T10:10:44.655Z,35.20
2022-09-05T10:12:17.121Z,35.10
2022-09-05T10:15:06.564Z,34.90
2022-09-05T10:18:26.328Z,35.00
2022-09-05T10:21:16.663Z,35.30
2022-09-05T10:24:27.069Z,35.00
2022-09-05T10:27:05.405Z,35.00
2022-09-05T10:29:46.809Z,34.80
2022-09-05T10:35:10.063Z,34.60
2022-09-05T10:35:21.257Z,34.70
2022-09-05T10:37:52.825Z,34.80
2022-09-05T10:40:23.053Z,35.10
2022-09-05T10:43:00.685Z,35.10
2022-09-05T10:45:38.651Z,34.90
2022-09-05T10:48:13.682Z,35.00
2022-09-05T10:50:43.975Z,34.90
2022-09-05T10:53:22.941Z,34.60
2022-09-05T10:56:00.361Z,35.10
2022-09-05T11:00:50.735Z,34.30
2022-09-05T11:02:31.052Z,34.40
2022-09-05T11:04:37.160Z,34.50
2022-09-05T11:07:19.426Z,34.50
2022-09-05T11:10:03.152Z,34.60
2022-09-05T11:12:39.146Z,34.30
2022-09-05T11:15:07.805Z,34.30
2022-09-05T11:17:40.147Z,34.10
2022-09-05T11:20:35.905Z,34.30
2022-09-05T11:23:05.963Z,34.40
2022-09-05T11:25:40.541Z,34.30
2022-09-05T11:28:14.786Z,34.30
2022-09-05T11:30:43.764Z,34.20
2022-09-05T11:39:48.086Z,34.40
2022-09-05T11:39:54.098Z,34.60
2022-09-05T11:39:56.071Z,34.50
2022-09-05T11:42:37.527Z,33.90
2022-09-05T11:45:34.627Z,33.90
2022-09-05T11:48:24.135Z,34.20
2022-09-05T11:51:33.958Z,34.00
2022-09-05T11:54:41.959Z,34.40
2022-09-05T11:57:33.384Z,34.60
2022-09-05T12:00:33.144Z,34.10
2022-09-05T12:03:56.935Z,34.20
2022-09-05T12:06:37.606Z,34.30
2022-09-05T12:09:23.645Z,34.30
2022-09-05T12:11:58.147Z,34.70
2022-09-05T12:14:35.635Z,34.50
2022-09-05T12:17:10.108Z,34.40
2022-09-05T12:19:47.260Z,34.50
2022-09-05T12:22:26.334Z,34.40
2022-09-05T12:25:25.146Z,34.40
2022-09-05T12:29:28.087Z,34.40
2022-09-05T12:31:58.834Z,34.60
2022-09-05T12:36:06.439Z,34.00
2022-09-05T12:40:54.834Z,34.10
2022-09-05T12:40:58.371Z,34.10
2022-09-05T12:42:25.724Z,34.10
2022-09-05T12:45:09.615Z,34.00
2022-09-05T12:47:59.308Z,34.20
2022-09-05T12:50:34.664Z,34.30
2022-09-05T12:53:09.067Z,33.80
2022-09-05T12:55:38.928Z,33.90
2022-09-05T13:02:26.452Z,34.00
2022-09-05T13:03:06.577Z,34.30
2022-09-05T13:04:20.019Z,34.90
2022-09-05T13:06:55.622Z,33.90
2022-09-05T13:09:27.746Z,33.60
2022-09-05T13:14:53.086Z,34.00
2022-09-05T13:15:20.017Z,34.30
2022-09-05T13:17:54.536Z,33.90
2022-09-05T13:20:34.354Z,34.70
2022-09-05T13:23:07.326Z,34.30
2022-09-05T13:25:37.182Z,34.70
2022-09-05T13:28:06.648Z,34.70
2022-09-05T13:33:49.133Z,34.80
2022-09-05T13:37:58.255Z,34.60
2022-09-05T13:38:06.613Z,34.40
2022-09-05T13:39:09.910Z,34.30
2022-09-05T13:41:43.171Z,34.50
2022-09-05T13:44:25.112Z,34.30
2022-09-05T13:46:58.879Z,34.20
2022-09-05T13:49:31.602Z,34.10
2022-09-05T13:52:08.111Z,34.80
2022-09-05T13:54:44.776Z,35.10
2022-09-05T13:57:32.165Z,34.80
2022-09-05T14:00:28.044Z,34.60
2022-09-05T14:03:39.477Z,34.90
2022-09-05T14:06:46.644Z,34.40
2022-09-05T14:12:03.312Z,34.20
2022-09-05T14:17:51.515Z,34.30
2022-09-05T14:20:37.507Z,34.10
2022-09-05T14:23:07.749Z,34.30
2022-09-05T14:25:38.892Z,34.60
2022-09-05T14:28:12.887Z,34.40
2022-09-05T14:33:19.143Z,34.00
2022-09-05T14:37:51.910Z,33.90
2022-09-05T14:37:54.822Z,34.40
2022-09-05T14:39:44.986Z,33.70
2022-09-05T14:42:24.035Z,33.80
2022-09-05T14:45:22.925Z,33.90
2022-09-05T14:48:14.143Z,34.00
2022-09-05T14:51:01.802Z,33.90
2022-09-05T14:57:23.653Z,33.30
2022-09-05T15:02:40.881Z,32.40
2022-09-05T15:02:41.537Z,33.20
2022-09-05T15:05:11.759Z,33.80
2022-09-05T15:07:41.112Z,33.70
2022-09-05T15:12:14.601Z,34.10
2022-09-05T15:13:16.966Z,34.10
2022-09-05T15:15:49.884Z,34.20
2022-09-05T15:18:32.320Z,34.40
2022-09-05T15:21:33.137Z,34.70
2022-09-05T15:24:04.759Z,34.90
2022-09-05T15:26:51.969Z,35.10
2022-09-05T15:29:22.936Z,35.30
2022-09-05T15:31:54.577Z,35.50
2022-09-05T15:34:38.856Z,35.50
2022-09-05T15:37:28.057Z,35.80
2022-09-05T15:40:22.923Z,35.70
2022-09-05T15:42:52.854Z,35.80
2022-09-05T15:45:24.507Z,35.80
2022-09-05T15:48:06.509Z,35.80
2022-09-05T15:50:42.048Z,36.30
2022-09-05T15:53:11.564Z,36.20
2022-09-05T15:55:46.295Z,36.10
2022-09-05T15:58:18.699Z,36.50
2022-09-05T16:00:51.495Z,36.30
2022-09-05T16:03:58.167Z,36.40
2022-09-05T16:10:37.775Z,36.50
2022-09-05T16:10:47.082Z,36.40
2022-09-05T16:15:13.231Z,36.80
2022-09-05T16:23:13.748Z,37.00
2022-09-05T16:23:25.481Z,37.30
2022-09-05T16:23:42.023Z,37.90
2022-09-05T16:26:11.951Z,37.90
2022-09-05T16:28:42.259Z,38.10
2022-09-05T16:31:20.760Z,38.40
2022-09-05T16:33:48.881Z,38.20
2022-09-05T16:36:29.868Z,38.50
2022-09-05T16:39:00.896Z,37.80
2022-09-05T16:41:35.768Z,37.80
2022-09-05T16:44:05.473Z,38.00
2022-09-05T16:46:36.104Z,38.60
2022-09-05T16:49:12.200Z,38.50
2022-09-05T16:51:43.058Z,38.60
2022-09-05T16:54:14.322Z,38.40
2022-09-05T16:56:43.442Z,38.40
2022-09-05T16:59:13.471Z,38.60
2022-09-05T17:02:05.669Z,38.60
2022-09-05T17:05:04.570Z,38.40
2022-09-05T17:07:47.292Z,38.40
2022-09-05T17:10:19.242Z,38.60
2022-09-05T17:12:47.424Z,38.90
2022-09-05T17:15:16.604Z,38.80
2022-09-05T17:18:21.493Z,39.50
2022-09-05T17:20:48.309Z,39.20
2022-09-05T17:29:20.232Z,39.30
2022-09-05T17:29:25.564Z,39.30
2022-09-05T17:29:32.594Z,39.40
2022-09-05T17:32:00.138Z,39.40
2022-09-05T17:34:50.812Z,39.30
2022-09-05T17:37:46.243Z,39.30
2022-09-05T17:40:42.810Z,39.50
2022-09-05T17:43:18.657Z,39.80
2022-09-05T17:46:01.035Z,40.00
2022-09-05T17:49:18.411Z,40.20
2022-09-05T17:52:22.179Z,40.00
2022-09-05T17:54:52.419Z,40.30
2022-09-05T17:57:37.794Z,41.00
2022-09-05T18:00:47.367Z,40.80
2022-09-05T18:04:16.611Z,41.70
2022-09-05T18:06:59.384Z,41.40
2022-09-05T18:13:14.354Z,41.50
2022-09-05T18:16:11.913Z,41.10
2022-09-05T18:19:33.395Z,40.80
2022-09-05T18:21:49.744Z,39.80
2022-09-05T18:24:33.195Z,39.70
2022-09-05T18:27:29.771Z,39.30
2022-09-05T18:29:58.550Z,39.60
2022-09-05T18:32:45.617Z,39.20
2022-09-05T18:35:36.753Z,39.40
2022-09-05T18:38:26.128Z,39.40
2022-09-05T18:41:11.262Z,39.50
2022-09-05T18:44:12.559Z,40.00
2022-09-05T18:46:44.295Z,39.70
2022-09-05T18:50:24.078Z,39.80
2022-09-05T18:52:05.649Z,40.30
2022-09-05T18:54:36.072Z,40.10
2022-09-05T18:57:26.602Z,40.30
2022-09-05T18:59:58.071Z,39.90
2022-09-05T19:02:49.892Z,40.00
2022-09-05T19:05:28.800Z,39.50
2022-09-05T19:07:59.417Z,40.00
2022-09-05T19:10:35.592Z,39.80
2022-09-05T19:13:14.960Z,40.00
2022-09-05T19:15:48.097Z,39.60
2022-09-05T19:18:26.151Z,39.40
2022-09-05T19:21:18.007Z,39.40
2022-09-05T19:23:50.866Z,39.90
2022-09-05T19:26:18.905Z,39.60
2022-09-05T19:36:51.931Z,40.10
2022-09-05T19:36:57.562Z,39.60
2022-09-05T19:37:03.611Z,40.20
2022-09-05T19:37:29.162Z,40.10
2022-09-05T19:45:55.843Z,39.90
2022-09-05T19:47:27.504Z,39.90
2022-09-05T19:47:40.607Z,39.90
2022-09-05T19:48:34.597Z,40.10
2022-09-05T19:51:16.911Z,40.60
2022-09-05T19:53:46.918Z,40.90
2022-09-05T19:56:14.768Z,40.90
2022-09-05T19:58:42.676Z,40.50
2022-09-05T20:01:15.511Z,40.60
2022-09-05T20:03:44.427Z,40.20
2022-09-05T20:06:29.152Z,40.30
2022-09-05T20:09:14.484Z,40.30
2022-09-05T20:11:46.785Z,40.00
2022-09-05T20:14:22.882Z,39.80
2022-09-05T20:16:54.076Z,39.50
2022-09-05T20:19:35.380Z,39.60
2022-09-05T20:22:14.364Z,40.10
2022-09-05T20:24:53.517Z,40.20
2022-09-05T20:27:27.153Z,40.10
2022-09-05T20:29:56.482Z,40.60
2022-09-05T20:32:38.993Z,40.60
2022-09-05T20:38:32.948Z,40.60
2022-09-05T20:43:10.183Z,40.80
2022-09-05T20:43:17.496Z,41.00
2022-09-05T20:43:53.550Z,40.90
2022-09-05T20:49:38.136Z,40.70
2022-09-05T20:54:05.315Z,40.70
2022-09-05T20:54:28.947Z,40.90
2022-09-05T20:55:38.433Z,41.10
2022-09-05T20:57:48.481Z,41.10
2022-09-05T21:00:17.784Z,41.30
2022-09-05T21:02:54.722Z,41.50
2022-09-05T21:05:29.874Z,41.40
2022-09-05T21:08:23.304Z,41.10
2022-09-05T21:10:55.797Z,41.60
2022-09-05T21:13:26.075Z,41.60
2022-09-05T21:15:54.711Z,41.70
2022-09-05T21:18:31.435Z,41.50
2022-09-05T21:21:10.330Z,41.50
2022-09-05T21:24:08.933Z,42.10
2022-09-05T21:26:47.155Z,41.60
2022-09-05T21:29:16.361Z,41.50
2022-09-05T21:31:45.019Z,41.50
2022-09-05T21:34:17.334Z,41.40
2022-09-05T21:36:48.583Z,41.40
2022-09-05T21:39:29.965Z,41.00
2022-09-05T21:42:03.487Z,40.70
2022-09-05T21:47:43.654Z,40.50
2022-09-05T21:47:52.339Z,40.20
2022-09-05T21:50:31.222Z,40.00
2022-09-05T21:53:15.895Z,39.90
2022-09-05T21:59:20.006Z,39.70
2022-09-05T21:59:26.994Z,39.60
2022-09-05T22:01:51.580Z,39.40
2022-09-05T22:04:13.176Z,39.30
2022-09-05T22:06:40.971Z,39.40
2022-09-05T22:09:13.799Z,39.20
2022-09-05T22:11:42.177Z,39.10
2022-09-05T22:14:10.170Z,39.20
2022-09-05T22:16:44.737Z,39.00
2022-09-05T22:19:17.833Z,39.00
2022-09-05T22:21:45.852Z,38.90
2022-09-05T22:24:15.566Z,38.90
2022-09-05T22:27:06.279Z,38.90
2022-09-05T22:29:34.570Z,38.80
2022-09-05T22:32:02.344Z,38.80
2022-09-05T22:34:30.256Z,38.80
2022-09-05T22:36:58.224Z,38.60
2022-09-05T22:39:37.753Z,38.70
2022-09-05T22:42:10.142Z,38.80
2022-09-05T22:44:39.181Z,38.20
2022-09-05T22:47:07.525Z,38.30
2022-09-05T22:49:36.496Z,38.30
2022-09-05T22:52:05.424Z,38.00
2022-09-05T22:54:34.746Z,38.50
2022-09-05T22:57:02.931Z,38.60
2022-09-05T22:59:30.860Z,38.60
2022-09-05T23:01:58.797Z,38.50
2022-09-05T23:04:26.977Z,38.60
2022-09-05T23:06:55.067Z,38.60
2022-09-05T23:09:23.052Z,38.50
2022-09-05T23:11:52.389Z,38.40
2022-09-05T23:14:20.422Z,38.30
2022-09-05T23:16:48.360Z,38.20
2022-09-05T23:19:16.334Z,38.00
2022-09-05T23:21:44.310Z,37.90
2022-09-05T23:24:12.216Z,38.10
2022-09-05T23:26:39.971Z,38.00
2022-09-05T23:29:09.097Z,38.00
2022-09-05T23:31:37.051Z,38.10
2022-09-05T23:34:05.039Z,38.50
2022-09-05T23:36:33.147Z,38.30
2022-09-05T23:39:01.064Z,38.40
2022-09-05T23:41:29.048Z,38.50
2022-09-05T23:43:57.078Z,39.30
2022-09-05T23:46:26.550Z,38.50
2022-09-05T23:48:54.668Z,38.50
2022-09-05T23:51:22.682Z,38.50
2022-09-05T23:53:50.741Z,38.70
2022-09-05T23:56:18.758Z,38.70
2022-09-05T23:58:46.697Z,38.70
